createdAt,value
2023-04-01T00:03:16.597Z,42.28
2023-04-01T00:08:19.544Z,42.00
2023-04-01T00:13:21.807Z,41.90
2023-04-01T00:18:24.557Z,42.09
2023-04-01T00:23:26.740Z,42.42
2023-04-01T00:28:29.743Z,42.52
2023-04-01T00:33:32.196Z,41.93
2023-04-01T00:38:34.359Z,42.01
2023-04-01T00:43:36.765Z,41.53
2023-04-01T00:48:43.807Z,41.66
2023-04-01T00:53:52.488Z,41.66
2023-04-01T00:59:09.689Z,41.71
2023-04-01T01:04:33.186Z,42.37
2023-04-01T01:09:58.438Z,41.88
2023-04-01T01:15:19.218Z,41.86
2023-04-01T01:20:30.155Z,42.28
2023-04-01T01:25:32.452Z,42.71
2023-04-01T01:30:40.613Z,43.11
2023-04-01T01:35:50.890Z,43.23
2023-04-01T01:40:55.310Z,43.60
2023-04-01T01:46:01.091Z,43.12
2023-04-01T01:51:04.671Z,42.33
2023-04-01T01:56:07.250Z,41.70
2023-04-01T02:01:16.902Z,43.52
2023-04-01T02:06:22.707Z,44.42
2023-04-01T02:11:50.245Z,43.19
2023-04-01T02:16:59.657Z,42.65
2023-04-01T02:22:05.114Z,41.97
2023-04-01T02:27:07.349Z,41.35
2023-04-01T02:32:11.218Z,40.94
2023-04-01T02:37:14.616Z,40.48
2023-04-01T02:42:17.146Z,40.45
2023-04-01T02:47:19.390Z,40.60
2023-04-01T02:52:21.564Z,40.48
2023-04-01T02:57:24.120Z,40.75
2023-04-01T03:02:26.633Z,40.51
2023-04-01T03:07:28.864Z,40.53
2023-04-01T03:12:31.112Z,40.81
2023-04-01T03:17:33.287Z,40.73
2023-04-01T03:22:36.596Z,41.15
2023-04-01T03:27:38.845Z,41.14
2023-04-01T03:32:41.326Z,41.63
2023-04-01T03:37:43.647Z,41.45
2023-04-01T03:42:46.051Z,41.63
2023-04-01T03:47:48.251Z,41.47
2023-04-01T03:52:50.504Z,41.33
2023-04-01T03:57:52.744Z,41.62
2023-04-01T04:02:56.498Z,42.30
2023-04-01T04:07:58.658Z,42.42
2023-04-01T04:13:01.024Z,42.72
2023-04-01T04:18:03.237Z,43.14
2023-04-01T04:23:05.486Z,44.91
2023-04-01T04:28:07.639Z,45.61
2023-04-01T04:33:09.826Z,44.66
2023-04-01T04:38:12.036Z,43.79
2023-04-01T04:43:16.045Z,43.11
2023-04-01T04:48:20.132Z,42.92
2023-04-01T04:53:22.313Z,42.83
2023-04-01T04:58:24.487Z,43.14
2023-04-01T05:03:26.839Z,43.37
2023-04-01T05:08:29.274Z,43.37
2023-04-01T05:13:31.510Z,43.96
2023-04-01T05:18:34.012Z,43.98
2023-04-01T05:23:36.581Z,43.73
2023-04-01T05:28:39.542Z,43.38
2023-04-01T05:33:41.929Z,43.24
2023-04-01T05:38:47.049Z,43.00
2023-04-01T05:43:49.233Z,42.71
2023-04-01T05:48:51.359Z,43.35
2023-04-01T05:53:53.492Z,43.76
2023-04-01T05:58:55.989Z,43.36
2023-04-01T06:03:58.432Z,43.37
2023-04-01T06:09:13.716Z,44.25
2023-04-01T06:14:44.934Z,44.43
2023-04-01T06:19:56.735Z,42.97
2023-04-01T06:25:20.205Z,42.40
2023-04-01T06:30:30.324Z,42.47
2023-04-01T06:35:51.213Z,41.87
2023-04-01T06:41:27.191Z,41.40
2023-04-01T06:46:58.381Z,41.25
2023-04-01T06:52:32.730Z,41.15
2023-04-01T06:57:48.859Z,40.74
2023-04-01T07:03:04.336Z,40.15
2023-04-01T07:08:15.160Z,40.88
2023-04-01T07:13:33.116Z,40.78
2023-04-01T07:19:03.434Z,39.86
2023-04-01T07:24:18.659Z,40.01
2023-04-01T07:29:21.154Z,39.15
2023-04-01T07:34:47.814Z,39.15
2023-04-01T07:39:49.897Z,38.33
2023-04-01T07:45:11.360Z,38.72
2023-04-01T07:50:19.470Z,38.70
2023-04-01T07:55:39.506Z,37.94
2023-04-01T08:00:52.332Z,37.95
2023-04-01T08:06:00.649Z,39.80
2023-04-01T08:11:29.039Z,41.29
2023-04-01T08:16:46.555Z,41.57
2023-04-01T08:21:53.993Z,42.40
2023-04-01T08:27:01.313Z,40.75
2023-04-01T08:32:13.990Z,40.79
2023-04-01T08:37:20.832Z,40.12
2023-04-01T08:42:41.529Z,39.92
2023-04-01T08:48:09.917Z,40.04
2023-04-01T08:53:27.933Z,38.65
2023-04-01T08:58:54.524Z,38.06
2023-04-01T09:04:25.185Z,37.46
2023-04-01T09:10:12.515Z,36.17
2023-04-01T09:15:46.818Z,37.03
2023-04-01T09:21:11.405Z,35.94
2023-04-01T09:26:36.284Z,34.96
2023-04-01T09:31:49.371Z,35.06
2023-04-01T09:37:23.330Z,35.65
2023-04-01T09:42:28.497Z,35.59
2023-04-01T09:48:01.645Z,34.99
2023-04-01T09:53:09.585Z,35.03
2023-04-01T09:58:43.677Z,35.95
2023-04-01T10:04:04.375Z,34.72
2023-04-01T10:09:12.090Z,34.72
2023-04-01T10:14:51.852Z,34.23
2023-04-01T10:20:20.350Z,34.37
2023-04-01T10:25:54.973Z,34.48
2023-04-01T10:31:15.071Z,33.10
2023-04-01T10:36:35.569Z,33.77
2023-04-01T10:41:49.421Z,33.74
2023-04-01T10:47:13.385Z,34.16
2023-04-01T10:52:49.236Z,32.61
2023-04-01T10:58:24.636Z,33.12
2023-04-01T11:03:52.043Z,33.58
2023-04-01T11:08:56.929Z,32.88
2023-04-01T11:14:35.990Z,32.27
2023-04-01T11:20:14.909Z,32.73
2023-04-01T11:25:36.485Z,33.45
2023-04-01T11:30:45.799Z,31.87
2023-04-01T11:36:25.382Z,31.98
2023-04-01T11:41:48.940Z,32.43
2023-04-01T11:46:58.735Z,32.07
2023-04-01T11:52:09.786Z,31.63
2023-04-01T11:57:25.704Z,31.57
2023-04-01T12:02:41.989Z,31.67
2023-04-01T12:07:47.122Z,31.72
2023-04-01T12:13:13.276Z,31.39
2023-04-01T12:18:29.899Z,31.74
2023-04-01T12:23:53.575Z,31.59
2023-04-01T12:29:41.014Z,31.24
2023-04-01T12:35:12.222Z,31.18
2023-04-01T12:41:00.556Z,31.40
2023-04-01T12:46:21.722Z,31.61
2023-04-01T12:51:38.979Z,31.10
2023-04-01T12:57:09.438Z,31.78
2023-04-01T13:02:26.830Z,31.76
2023-04-01T13:07:35.153Z,31.19
2023-04-01T13:12:50.979Z,30.63
2023-04-01T13:18:14.893Z,31.24
2023-04-01T13:23:34.676Z,31.13
2023-04-01T13:28:51.791Z,32.13
2023-04-01T13:34:21.623Z,31.97
2023-04-01T13:39:43.910Z,32.51
2023-04-01T13:45:01.741Z,32.53
2023-04-01T13:50:30.104Z,32.74
2023-04-01T13:55:52.744Z,32.88
2023-04-01T14:01:15.930Z,32.00
2023-04-01T14:06:28.011Z,32.50
2023-04-01T14:11:53.271Z,32.06
2023-04-01T14:17:04.833Z,31.86
2023-04-01T14:22:07.209Z,32.15
2023-04-01T14:27:10.437Z,31.67
2023-04-01T14:32:31.224Z,31.78
2023-04-01T14:37:54.546Z,31.78
2023-04-01T14:43:21.362Z,31.29
2023-04-01T14:48:26.584Z,31.74
2023-04-01T14:53:32.892Z,32.25
2023-04-01T14:58:51.921Z,32.36
2023-04-01T15:04:30.992Z,31.70
2023-04-01T15:09:51.787Z,29.30
2023-04-01T15:15:37.234Z,26.64
2023-04-01T15:21:05.211Z,26.75
2023-04-01T15:26:36.922Z,27.83
2023-04-01T15:31:51.081Z,28.74
2023-04-01T15:37:16.326Z,28.09
2023-04-01T15:43:00.186Z,27.77
2023-04-01T15:48:11.589Z,29.49
2023-04-01T15:53:19.397Z,29.65
2023-04-01T15:58:25.672Z,31.02
2023-04-01T16:03:46.731Z,31.94
2023-04-01T16:09:26.122Z,32.57
2023-04-01T16:14:57.428Z,33.03
2023-04-01T16:20:11.528Z,33.30
2023-04-01T16:25:21.812Z,33.35
2023-04-01T16:30:49.812Z,33.36
2023-04-01T16:36:02.057Z,33.29
2023-04-01T16:41:04.109Z,33.60
2023-04-01T16:46:28.007Z,34.46
2023-04-01T16:52:16.806Z,34.72
2023-04-01T16:57:51.820Z,34.70
2023-04-01T17:03:11.768Z,35.55
2023-04-01T17:08:31.925Z,35.49
2023-04-01T17:13:48.033Z,35.56
2023-04-01T17:19:27.614Z,35.51
2023-04-01T17:24:53.538Z,35.59
2023-04-01T17:30:04.494Z,34.95
2023-04-01T17:35:18.422Z,34.86
2023-04-01T17:40:41.817Z,34.77
2023-04-01T17:46:01.574Z,34.61
2023-04-01T17:51:13.478Z,34.52
2023-04-01T17:56:51.566Z,34.11
2023-04-01T18:02:05.856Z,33.90
2023-04-01T18:07:26.793Z,33.60
2023-04-01T18:13:07.368Z,33.84
2023-04-01T18:18:46.963Z,34.25
2023-04-01T18:24:02.363Z,34.62
2023-04-01T18:29:23.527Z,34.46
2023-04-01T18:34:43.437Z,34.42
2023-04-01T18:39:54.582Z,34.68
2023-04-01T18:45:44.165Z,34.51
2023-04-01T18:51:18.847Z,34.87
2023-04-01T18:56:32.831Z,34.60
2023-04-01T19:01:59.201Z,34.75
2023-04-01T19:07:22.883Z,34.72
2023-04-01T19:12:27.555Z,34.60
2023-04-01T19:17:37.515Z,34.36
2023-04-01T19:22:55.915Z,34.39
2023-04-01T19:28:19.790Z,34.29
2023-04-01T19:33:38.453Z,34.91
2023-04-01T19:38:44.498Z,34.95
2023-04-01T19:43:46.823Z,35.45
2023-04-01T19:49:28.508Z,36.00
2023-04-01T19:55:13.330Z,36.47
2023-04-01T20:00:57.146Z,37.03
2023-04-01T20:06:24.404Z,37.37
2023-04-01T20:12:01.862Z,37.41
2023-04-01T20:17:10.812Z,37.98
2023-04-01T20:22:40.456Z,38.29
2023-04-01T20:28:16.114Z,38.27
2023-04-01T20:33:33.289Z,38.22
2023-04-01T20:38:53.456Z,38.18
2023-04-01T20:44:18.701Z,37.98
2023-04-01T20:49:36.590Z,37.48
2023-04-01T20:55:02.736Z,37.17
2023-04-01T21:00:35.021Z,37.08
2023-04-01T21:05:37.386Z,36.91
2023-04-01T21:10:42.321Z,37.14
2023-04-01T21:15:50.176Z,37.01
2023-04-01T21:21:43.518Z,36.35
2023-04-01T21:26:54.922Z,36.39
2023-04-01T21:32:29.371Z,36.29
2023-04-01T21:37:46.532Z,37.28
2023-04-01T21:43:34.269Z,38.13
2023-04-01T21:48:48.272Z,39.98
2023-04-01T21:54:38.274Z,42.48
2023-04-01T22:00:17.599Z,43.67
2023-04-01T22:05:36.180Z,44.26
2023-04-01T22:10:50.524Z,43.31
2023-04-01T22:16:26.931Z,42.86
2023-04-01T22:21:53.451Z,41.86
2023-04-01T22:27:00.522Z,41.51
2023-04-01T22:32:20.942Z,40.42
2023-04-01T22:37:37.326Z,39.70
2023-04-01T22:43:10.298Z,39.48
2023-04-01T22:48:39.750Z,39.50
2023-04-01T22:54:15.773Z,39.00
2023-04-01T22:59:47.634Z,39.10
2023-04-01T23:04:56.695Z,39.96
2023-04-01T23:10:02.755Z,39.75
2023-04-01T23:15:05.672Z,39.64
2023-04-01T23:20:26.642Z,39.53
2023-04-01T23:25:36.254Z,39.39
2023-04-01T23:30:41.665Z,39.31
2023-04-01T23:35:53.685Z,39.42
2023-04-01T23:40:56.894Z,40.04
2023-04-01T23:46:04.844Z,39.79
2023-04-01T23:51:20.088Z,39.72
2023-04-01T23:56:22.273Z,40.17
